Time;durP1;ratioP1;P1;durP2;ratioP2;P2;SDS_P1;SDS_P2;PMS_P1;PMS_P2;Temp;Humidity;BMP_temperature;BMP_pressure;BME280_temperature;BME280_humidity;BME280_pressure;Samples;Min_cycle;Max_cycle;Signal;HPM_P1;HPM_P2
2023/10/29 00:01:39;;;;;;;5.10;2.40;;;14.40;99.90;;;;;;5000227;28;20560;-76
2023/10/29 00:04:05;;;;;;;5.43;2.70;;;14.30;99.90;;;;;;5003072;28;20200;-76
2023/10/29 00:06:30;;;;;;;3.73;2.23;;;14.30;99.90;;;;;;5003276;28;20185;-75
2023/10/29 00:08:56;;;;;;;4.10;2.70;;;14.30;99.90;;;;;;4993863;28;20685;-75
2023/10/29 00:11:22;;;;;;;6.27;2.80;;;14.40;99.90;;;;;;4991411;28;20200;-75
2023/10/29 00:13:48;;;;;;;3.83;2.47;;;14.30;99.90;;;;;;4991321;28;20189;-76
2023/10/29 00:16:13;;;;;;;5.30;2.93;;;14.30;99.90;;;;;;4991880;28;20185;-76
2023/10/29 00:18:42;;;;;;;5.60;2.67;;;14.30;99.90;;;;;;4993844;28;20511;-75
2023/10/29 00:21:07;;;;;;;4.93;2.43;;;14.30;99.90;;;;;;4997955;28;20209;-75
2023/10/29 00:23:33;;;;;;;4.90;2.47;;;14.30;99.90;;;;;;4990816;28;20431;-75
2023/10/29 00:25:59;;;;;;;4.70;2.50;;;14.30;99.90;;;;;;5003678;28;20170;-75
2023/10/29 00:28:27;;;;;;;5.33;3.10;;;14.30;99.90;;;;;;5006018;28;20446;-75
2023/10/29 00:30:55;;;;;;;5.47;2.37;;;14.30;99.90;;;;;;4998283;28;20212;-75
2023/10/29 00:33:21;;;;;;;11.87;2.77;;;14.30;99.90;;;;;;4990323;28;20422;-75
2023/10/29 00:35:46;;;;;;;4.70;2.33;;;14.30;99.90;;;;;;4992541;28;20439;-76
2023/10/29 00:38:13;;;;;;;4.03;1.97;;;14.40;99.90;;;;;;4999458;28;20431;-76
2023/10/29 00:40:39;;;;;;;6.70;2.70;;;14.40;99.90;;;;;;5000080;28;20755;-76
2023/10/29 00:43:04;;;;;;;3.50;2.33;;;14.40;99.90;;;;;;4994858;28;20970;-77
2023/10/29 00:45:30;;;;;;;5.13;2.50;;;14.40;99.90;;;;;;4997261;28;20898;-77
2023/10/29 00:47:57;;;;;;;4.47;2.60;;;14.40;99.90;;;;;;4990318;28;20280;-77
2023/10/29 00:50:23;;;;;;;8.07;2.53;;;14.40;99.90;;;;;;5000700;28;20479;-77
2023/10/29 00:52:49;;;;;;;4.63;2.20;;;14.40;99.90;;;;;;4997621;28;20442;-77
2023/10/29 00:55:15;;;;;;;4.37;2.17;;;14.40;99.90;;;;;;5000490;28;20679;-77
2023/10/29 00:57:41;;;;;;;8.80;2.60;;;14.40;99.90;;;;;;5000553;28;20982;-77
2023/10/29 01:00:07;;;;;;;4.63;2.97;;;14.40;99.90;;;;;;4996277;28;20456;-77
2023/10/29 01:02:33;;;;;;;6.43;2.47;;;14.40;99.90;;;;;;5005561;28;20196;-76
2023/10/29 01:05:00;;;;;;;3.73;2.27;;;14.50;99.90;;;;;;4999193;28;20447;-76
2023/10/29 01:07:26;;;;;;;2.80;1.83;;;14.50;99.90;;;;;;4994141;28;20445;-75
2023/10/29 01:09:52;;;;;;;3.03;2.10;;;14.40;99.90;;;;;;5006657;28;20886;-74
2023/10/29 01:12:19;;;;;;;3.40;2.33;;;14.40;99.90;;;;;;4992618;28;20189;-74
2023/10/29 01:14:44;;;;;;;6.20;2.57;;;14.40;99.90;;;;;;4998852;28;20324;-74
2023/10/29 01:17:10;;;;;;;3.50;2.40;;;14.40;99.90;;;;;;4997835;28;20913;-74
2023/10/29 01:19:35;;;;;;;3.17;2.27;;;14.40;99.90;;;;;;4993668;28;20194;-75
2023/10/29 01:22:01;;;;;;;4.27;2.33;;;14.40;99.90;;;;;;5000135;28;20182;-75
2023/10/29 01:24:27;;;;;;;4.27;2.50;;;14.40;99.90;;;;;;4993798;28;20641;-73
2023/10/29 01:26:53;;;;;;;4.20;2.50;;;14.50;99.90;;;;;;4996146;28;20588;-74
2023/10/29 01:29:19;;;;;;;3.80;2.70;;;14.40;99.90;;;;;;4991011;28;20484;-73
2023/10/29 01:31:48;;;;;;;4.07;2.30;;;14.40;99.90;;;;;;4994328;28;20455;-73
2023/10/29 01:34:14;;;;;;;3.33;2.30;;;14.40;99.90;;;;;;4999241;28;20193;-73
2023/10/29 01:36:39;;;;;;;4.93;2.30;;;14.40;99.90;;;;;;4992565;28;20572;-73
2023/10/29 01:39:05;;;;;;;4.10;2.50;;;14.40;99.90;;;;;;4997150;28;20194;-73
2023/10/29 01:41:31;;;;;;;3.67;2.43;;;14.50;99.90;;;;;;4996683;28;20209;-73
2023/10/29 01:43:57;;;;;;;3.37;2.30;;;14.40;99.90;;;;;;5001147;28;20226;-73
2023/10/29 01:46:23;;;;;;;6.83;1.80;;;14.40;99.90;;;;;;4991622;28;20468;-74
2023/10/29 01:48:49;;;;;;;2.60;1.97;;;14.40;99.90;;;;;;4991219;28;20185;-72
2023/10/29 01:51:15;;;;;;;4.77;2.80;;;14.40;99.90;;;;;;4996478;28;20482;-74
2023/10/29 01:53:40;;;;;;;3.40;2.00;;;14.40;99.90;;;;;;4992955;28;20999;-75
2023/10/29 01:56:07;;;;;;;3.73;2.10;;;14.40;99.90;;;;;;4996277;28;20170;-74
2023/10/29 01:58:33;;;;;;;3.50;2.37;;;14.40;99.90;;;;;;4995433;28;20201;-74
2023/10/29 02:00:58;;;;;;;4.97;3.47;;;14.40;99.90;;;;;;5000772;28;21211;-74
2023/10/29 02:03:24;;;;;;;3.67;2.33;;;14.40;99.90;;;;;;4995582;28;20275;-75
2023/10/29 02:05:50;;;;;;;3.50;2.07;;;14.40;99.90;;;;;;4992476;28;20192;-75
2023/10/29 02:08:17;;;;;;;2.47;1.70;;;14.40;99.90;;;;;;4994280;28;20838;-76
2023/10/29 02:10:43;;;;;;;3.67;1.93;;;14.40;99.90;;;;;;4987039;28;20216;-73
2023/10/29 02:13:08;;;;;;;5.73;2.03;;;14.40;99.90;;;;;;4992715;28;20536;-74
2023/10/29 02:15:34;;;;;;;3.20;1.80;;;14.40;99.90;;;;;;4994872;28;20172;-74
2023/10/29 02:17:59;;;;;;;3.40;1.77;;;14.50;99.90;;;;;;4992649;28;20174;-74
2023/10/29 02:20:25;;;;;;;3.70;2.00;;;14.40;99.90;;;;;;4998309;28;20297;-74
2023/10/29 02:22:51;;;;;;;2.67;2.20;;;14.50;99.90;;;;;;5000243;28;20192;-73
2023/10/29 02:25:16;;;;;;;2.53;1.63;;;14.40;99.90;;;;;;4999736;28;20216;-73
2023/10/29 02:27:42;;;;;;;8.13;2.10;;;14.50;99.90;;;;;;4997445;28;20271;-73
2023/10/29 02:30:08;;;;;;;3.30;2.20;;;14.40;99.90;;;;;;4991863;28;20205;-74
2023/10/29 02:32:33;;;;;;;3.60;2.20;;;14.50;99.90;;;;;;4994246;28;20178;-74
2023/10/29 02:34:59;;;;;;;4.90;2.43;;;14.50;99.90;;;;;;4995707;28;20967;-73
2023/10/29 02:37:25;;;;;;;5.30;2.30;;;14.50;99.90;;;;;;4997480;28;20185;-72
2023/10/29 02:39:50;;;;;;;3.13;2.17;;;14.50;99.90;;;;;;4992631;28;20687;-73
2023/10/29 02:42:17;;;;;;;3.40;2.27;;;14.50;99.90;;;;;;5000097;28;20178;-72
2023/10/29 02:44:43;;;;;;;4.87;2.93;;;14.50;99.90;;;;;;4998589;28;20267;-73
2023/10/29 02:47:08;;;;;;;4.97;2.10;;;14.50;99.90;;;;;;4991296;28;20482;-75
2023/10/29 02:49:34;;;;;;;4.87;2.10;;;14.50;99.90;;;;;;4999650;28;20462;-75
2023/10/29 02:51:59;;;;;;;3.37;2.50;;;14.50;99.90;;;;;;4997326;28;20187;-75
2023/10/29 02:54:25;;;;;;;3.07;2.37;;;14.50;99.90;;;;;;4996056;28;20181;-75
2023/10/29 02:56:51;;;;;;;3.50;2.17;;;14.50;99.90;;;;;;4985609;28;20206;-74
2023/10/29 02:59:16;;;;;;;3.83;2.00;;;14.50;99.90;;;;;;5001314;28;20265;-74
2023/10/29 03:01:42;;;;;;;4.00;1.77;;;14.50;99.90;;;;;;4991488;28;20727;-74
2023/10/29 03:04:08;;;;;;;4.30;2.00;;;14.60;99.90;;;;;;5000232;28;20208;-74
2023/10/29 03:06:37;;;;;;;5.50;1.90;;;14.50;99.90;;;;;;4988086;28;20432;-73
2023/10/29 03:09:03;;;;;;;4.43;1.50;;;14.50;99.90;;;;;;4997426;28;20213;-74
2023/10/29 03:11:28;;;;;;;3.80;1.73;;;14.50;99.90;;;;;;4997963;28;20456;-74
2023/10/29 03:13:54;;;;;;;2.40;1.50;;;14.50;99.90;;;;;;5000236;28;20193;-74
2023/10/29 03:16:19;;;;;;;5.80;1.70;;;14.50;99.90;;;;;;4994137;28;20658;-74
2023/10/29 03:18:47;;;;;;;3.53;1.70;;;14.50;99.90;;;;;;4992617;28;20193;-74
2023/10/29 03:21:16;;;;;;;2.47;1.60;;;14.50;99.90;;;;;;4997064;28;20221;-74
2023/10/29 03:23:41;;;;;;;5.03;2.43;;;14.50;99.90;;;;;;4990444;28;20969;-73
2023/10/29 03:26:07;;;;;;;3.37;2.10;;;14.50;99.90;;;;;;4999595;28;20420;-74
2023/10/29 03:28:34;;;;;;;2.80;1.90;;;14.50;99.90;;;;;;4991644;28;20265;-74
2023/10/29 03:31:00;;;;;;;4.83;1.70;;;14.50;99.90;;;;;;4998808;28;20480;-74
2023/10/29 03:33:25;;;;;;;3.70;2.00;;;14.50;99.90;;;;;;4995982;28;20951;-74
2023/10/29 03:35:51;;;;;;;2.63;1.60;;;14.50;99.90;;;;;;4992059;28;20321;-74
2023/10/29 03:38:16;;;;;;;4.03;2.10;;;14.50;99.90;;;;;;4996099;28;20216;-74
2023/10/29 03:40:42;;;;;;;3.47;2.00;;;14.30;99.90;;;;;;4994493;28;20213;-73
2023/10/29 03:43:08;;;;;;;2.60;1.87;;;14.30;99.90;;;;;;4998267;28;20842;-74
2023/10/29 03:45:33;;;;;;;2.87;1.67;;;14.40;99.90;;;;;;4998406;28;20185;-74
2023/10/29 03:47:59;;;;;;;3.30;1.70;;;14.30;99.90;;;;;;5000081;28;20264;-73
2023/10/29 03:50:24;;;;;;;2.73;2.03;;;14.30;99.90;;;;;;4992427;28;20241;-74
2023/10/29 03:52:50;;;;;;;2.83;2.10;;;14.30;99.90;;;;;;4996977;28;20187;-73
2023/10/29 03:55:16;;;;;;;3.07;2.20;;;14.40;99.90;;;;;;4995102;28;20247;-73
2023/10/29 03:57:42;;;;;;;2.97;2.07;;;14.30;99.90;;;;;;4997840;28;20661;-74
2023/10/29 04:00:09;;;;;;;3.07;2.00;;;14.40;99.90;;;;;;4994229;28;20688;-75
2023/10/29 04:02:35;;;;;;;3.67;2.20;;;14.40;99.90;;;;;;4997387;28;20446;-75
2023/10/29 04:05:00;;;;;;;5.60;2.37;;;14.40;99.90;;;;;;4998547;28;20448;-74
2023/10/29 04:07:26;;;;;;;3.80;2.27;;;14.40;99.90;;;;;;4989391;28;20185;-74
2023/10/29 04:09:51;;;;;;;3.50;2.00;;;14.40;99.90;;;;;;4993152;28;21053;-74
2023/10/29 04:12:17;;;;;;;7.90;4.23;;;14.40;99.90;;;;;;4989910;28;20278;-74
2023/10/29 04:14:43;;;;;;;2.83;2.13;;;14.40;99.90;;;;;;4994386;28;20664;-74
2023/10/29 04:17:09;;;;;;;3.40;2.33;;;14.40;99.90;;;;;;5004228;28;20181;-74
2023/10/29 04:19:34;;;;;;;3.27;2.50;;;14.40;99.90;;;;;;4999521;28;20264;-74
2023/10/29 04:22:01;;;;;;;3.73;2.00;;;14.40;99.90;;;;;;5008111;28;20510;-73
2023/10/29 04:24:27;;;;;;;4.90;2.57;;;14.40;99.90;;;;;;5005282;28;20540;-73
2023/10/29 04:26:52;;;;;;;6.67;2.67;;;14.40;99.90;;;;;;5003237;28;20419;-73
2023/10/29 04:29:18;;;;;;;3.00;2.23;;;14.40;99.90;;;;;;4998234;28;20233;-74
2023/10/29 04:31:43;;;;;;;2.93;2.10;;;14.40;99.90;;;;;;5002529;28;20834;-75
2023/10/29 04:34:09;;;;;;;2.90;2.00;;;14.30;99.90;;;;;;4997477;28;20261;-74
2023/10/29 04:36:35;;;;;;;3.27;2.30;;;14.30;99.90;;;;;;4999745;28;20671;-74
2023/10/29 04:39:00;;;;;;;3.03;2.50;;;14.30;99.90;;;;;;4999144;28;20181;-74
2023/10/29 04:41:26;;;;;;;4.10;2.13;;;14.30;99.90;;;;;;5002343;28;20205;-74
2023/10/29 04:43:51;;;;;;;2.87;2.00;;;14.30;99.90;;;;;;5003944;28;20769;-74
2023/10/29 04:46:17;;;;;;;2.47;1.80;;;14.30;99.90;;;;;;5010127;28;20191;-74
2023/10/29 04:48:43;;;;;;;3.00;2.00;;;14.30;99.90;;;;;;4997028;28;20251;-73
2023/10/29 04:51:09;;;;;;;3.93;2.43;;;14.30;99.90;;;;;;4995816;28;21264;-74
2023/10/29 04:53:35;;;;;;;7.70;2.67;;;14.30;99.90;;;;;;4997157;28;20460;-73
2023/10/29 04:56:02;;;;;;;3.67;2.20;;;14.30;99.90;;;;;;4997092;28;20178;-73
2023/10/29 04:58:28;;;;;;;3.57;2.77;;;14.30;99.90;;;;;;5000395;28;20944;-74
2023/10/29 05:01:00;;;;;;;2.93;2.20;;;14.30;99.90;;;;;;5003905;28;20451;-75
2023/10/29 05:03:27;;;;;;;5.20;2.40;;;14.30;99.90;;;;;;4996346;28;20437;-74
2023/10/29 05:05:54;;;;;;;2.70;2.07;;;14.30;99.90;;;;;;5005101;28;21009;-74
2023/10/29 05:08:20;;;;;;;5.00;2.63;;;14.30;99.90;;;;;;4997783;28;20486;-74
2023/10/29 05:10:46;;;;;;;4.10;2.50;;;14.30;99.90;;;;;;4998734;28;21133;-75
2023/10/29 05:13:12;;;;;;;3.47;2.33;;;14.20;99.90;;;;;;4993012;28;20174;-74
2023/10/29 05:15:38;;;;;;;5.83;2.90;;;14.30;99.90;;;;;;5001061;28;20428;-74
2023/10/29 05:18:03;;;;;;;4.07;2.93;;;14.30;99.90;;;;;;4999341;28;20419;-75
2023/10/29 05:20:29;;;;;;;4.70;3.00;;;14.30;99.90;;;;;;4993789;28;20208;-75
2023/10/29 05:22:55;;;;;;;3.77;2.70;;;14.30;99.90;;;;;;4996530;28;20648;-74
2023/10/29 05:25:20;;;;;;;3.30;2.50;;;14.30;99.90;;;;;;5000079;28;20189;-74
2023/10/29 05:27:53;;;;;;;4.23;3.07;;;14.30;99.90;;;;;;5000587;28;20277;-75
2023/10/29 05:30:20;;;;;;;3.87;2.80;;;14.30;99.90;;;;;;4994606;28;20225;-73
2023/10/29 05:32:45;;;;;;;4.27;2.90;;;14.30;99.90;;;;;;4999340;28;20419;-73
2023/10/29 05:35:11;;;;;;;3.00;2.70;;;14.30;99.90;;;;;;5001155;28;20416;-75
2023/10/29 05:37:37;;;;;;;5.00;2.50;;;14.30;99.90;;;;;;5002683;28;20612;-75
2023/10/29 05:40:04;;;;;;;5.60;2.67;;;14.30;99.90;;;;;;4996479;28;20204;-75
2023/10/29 05:42:35;;;;;;;6.47;2.73;;;14.30;99.90;;;;;;4996355;28;20170;-74
2023/10/29 05:45:01;;;;;;;3.50;2.43;;;14.40;99.90;;;;;;4996003;28;20419;-75
2023/10/29 05:47:27;;;;;;;5.43;2.60;;;14.40;99.90;;;;;;5000535;28;20875;-75
2023/10/29 05:49:54;;;;;;;3.20;2.60;;;14.40;99.90;;;;;;4997282;28;20207;-75
2023/10/29 05:52:20;;;;;;;4.37;2.70;;;14.40;99.90;;;;;;5000179;28;20726;-75
2023/10/29 05:54:45;;;;;;;5.27;2.47;;;14.40;99.90;;;;;;4996346;28;20555;-74
2023/10/29 05:57:11;;;;;;;3.27;2.20;;;14.40;99.90;;;;;;4996955;28;20178;-75
2023/10/29 05:59:37;;;;;;;3.00;2.33;;;14.40;99.90;;;;;;4993782;28;20186;-75
2023/10/29 06:02:02;;;;;;;5.20;2.53;;;14.40;99.90;;;;;;4994480;28;21387;-75
2023/10/29 06:04:28;;;;;;;5.20;2.93;;;14.40;99.90;;;;;;4997291;28;20205;-75
2023/10/29 06:06:54;;;;;;;4.20;3.07;;;14.40;99.90;;;;;;4994786;28;20280;-74
2023/10/29 06:09:19;;;;;;;4.50;2.87;;;14.40;99.90;;;;;;4998168;28;20205;-74
2023/10/29 06:11:45;;;;;;;3.73;2.40;;;14.40;99.90;;;;;;4999309;28;20198;-77
2023/10/29 06:14:10;;;;;;;3.83;3.00;;;14.50;99.90;;;;;;4995570;28;20267;-76
2023/10/29 06:16:37;;;;;;;4.47;3.10;;;14.50;99.90;;;;;;4989493;28;20181;-76
2023/10/29 06:19:02;;;;;;;4.13;3.00;;;14.40;99.90;;;;;;4998714;28;20180;-76
2023/10/29 06:21:29;;;;;;;5.87;2.70;;;14.50;99.90;;;;;;4987655;28;20448;-77
2023/10/29 06:23:56;;;;;;;6.27;3.50;;;14.50;99.90;;;;;;4997523;28;20609;-76
2023/10/29 06:26:22;;;;;;;4.70;3.23;;;14.50;99.90;;;;;;4997168;28;20508;-76
2023/10/29 06:28:47;;;;;;;5.13;2.77;;;14.50;99.90;;;;;;4996742;28;20503;-76
2023/10/29 06:31:13;;;;;;;4.20;2.60;;;14.50;99.90;;;;;;4992514;28;20456;-77
2023/10/29 06:33:41;;;;;;;6.73;3.30;;;14.50;99.90;;;;;;4993688;28;20754;-75
2023/10/29 06:36:07;;;;;;;4.37;3.23;;;14.50;99.90;;;;;;4992595;28;20235;-75
2023/10/29 06:38:32;;;;;;;5.00;3.27;;;14.50;99.90;;;;;;4999366;28;20428;-76
2023/10/29 06:40:58;;;;;;;6.20;3.50;;;14.50;99.90;;;;;;4995973;28;21041;-75
2023/10/29 06:43:23;;;;;;;3.77;2.60;;;14.50;99.90;;;;;;4996013;28;20182;-75
2023/10/29 06:45:49;;;;;;;4.00;3.10;;;14.60;99.90;;;;;;4993076;28;20208;-74
2023/10/29 06:48:15;;;;;;;3.90;2.57;;;14.50;99.90;;;;;;4997141;28;20227;-75
2023/10/29 06:50:42;;;;;;;3.00;2.50;;;14.40;99.90;;;;;;4995394;28;20235;-75
2023/10/29 06:53:08;;;;;;;6.83;3.00;;;14.40;99.90;;;;;;4998918;28;20165;-76
2023/10/29 06:55:36;;;;;;;5.03;3.23;;;14.40;99.90;;;;;;4993290;28;20429;-77
2023/10/29 06:58:01;;;;;;;3.57;2.53;;;14.40;99.90;;;;;;4995143;28;20283;-76
2023/10/29 07:00:29;;;;;;;5.00;3.47;;;14.40;99.90;;;;;;4993691;28;20528;-75
2023/10/29 07:02:55;;;;;;;3.93;2.80;;;14.40;99.90;;;;;;4984372;28;20288;-75
2023/10/29 07:05:21;;;;;;;7.20;3.40;;;14.40;99.90;;;;;;4995248;28;20479;-75
2023/10/29 07:07:47;;;;;;;6.03;3.80;;;14.40;99.90;;;;;;4996414;28;20451;-76
2023/10/29 07:10:13;;;;;;;5.80;3.73;;;14.40;99.90;;;;;;4996032;28;20201;-75
2023/10/29 07:12:39;;;;;;;4.00;3.30;;;14.40;99.90;;;;;;4985238;28;20437;-75
2023/10/29 07:15:05;;;;;;;5.33;3.77;;;14.40;99.90;;;;;;4991983;28;20427;-75
2023/10/29 07:17:30;;;;;;;4.83;3.37;;;14.40;99.90;;;;;;4994756;28;20427;-76
2023/10/29 07:19:56;;;;;;;7.03;3.17;;;14.30;99.90;;;;;;4993694;28;20451;-76
2023/10/29 07:22:21;;;;;;;4.47;3.00;;;14.30;99.90;;;;;;4991743;28;20203;-76
2023/10/29 07:24:47;;;;;;;5.73;2.70;;;14.30;99.90;;;;;;4998979;28;20185;-76
2023/10/29 07:27:13;;;;;;;4.77;3.17;;;14.20;99.90;;;;;;4994376;28;20181;-78
2023/10/29 07:29:38;;;;;;;8.97;2.97;;;14.20;99.90;;;;;;4994477;28;20291;-77
2023/10/29 07:32:04;;;;;;;6.30;3.37;;;14.20;99.90;;;;;;4999726;28;20168;-77
2023/10/29 07:34:30;;;;;;;5.87;2.90;;;14.20;99.90;;;;;;4989472;28;20186;-78
2023/10/29 07:36:55;;;;;;;4.37;2.53;;;14.20;99.90;;;;;;4993901;28;20183;-77
2023/10/29 07:39:21;;;;;;;5.53;2.60;;;14.20;99.90;;;;;;4993748;28;20938;-77
2023/10/29 07:41:46;;;;;;;3.47;2.47;;;14.10;99.90;;;;;;4995271;28;20204;-77
2023/10/29 07:44:12;;;;;;;4.93;2.63;;;14.10;99.90;;;;;;4992302;28;20180;-77
2023/10/29 07:46:38;;;;;;;8.77;2.90;;;14.10;99.90;;;;;;4996222;28;20590;-76
2023/10/29 07:49:03;;;;;;;4.33;2.40;;;14.10;99.90;;;;;;5002228;28;20284;-77
2023/10/29 07:51:29;;;;;;;7.27;3.30;;;14.10;99.90;;;;;;4996685;28;20283;-77
2023/10/29 07:53:55;;;;;;;8.33;3.60;;;14.00;99.90;;;;;;5000571;28;20189;-76
2023/10/29 07:56:21;;;;;;;3.67;2.67;;;13.90;99.90;;;;;;4993120;28;20176;-76
2023/10/29 07:58:47;;;;;;;4.77;2.90;;;14.00;99.90;;;;;;5002977;28;20528;-77
2023/10/29 08:01:17;;;;;;;6.83;3.07;;;14.00;99.90;;;;;;4997632;28;20197;-76
2023/10/29 08:03:44;;;;;;;8.00;2.67;;;14.10;99.90;;;;;;4992145;28;20454;-74
2023/10/29 08:06:10;;;;;;;4.37;2.50;;;14.10;99.90;;;;;;4999222;28;21292;-73
2023/10/29 08:08:36;;;;;;;5.40;3.67;;;14.10;99.90;;;;;;4999700;28;20522;-74
2023/10/29 08:11:02;;;;;;;5.50;3.30;;;14.20;99.90;;;;;;5003153;28;21130;-75
2023/10/29 08:13:28;;;;;;;3.07;2.60;;;14.10;99.90;;;;;;5002868;28;21005;-74
2023/10/29 08:15:54;;;;;;;7.43;4.80;;;14.10;99.90;;;;;;4992708;28;20420;-74
2023/10/29 08:18:20;;;;;;;7.00;3.30;;;14.20;99.90;;;;;;4998509;28;20205;-74
2023/10/29 08:20:46;;;;;;;6.10;3.40;;;14.30;99.90;;;;;;4994399;28;20993;-75
2023/10/29 08:23:11;;;;;;;8.63;6.60;;;14.30;99.90;;;;;;4995877;28;20428;-74
2023/10/29 08:25:38;;;;;;;6.17;3.37;;;14.40;99.90;;;;;;5001392;28;20236;-74
2023/10/29 08:28:05;;;;;;;5.67;3.93;;;14.50;99.90;;;;;;4995433;28;20284;-74
2023/10/29 08:30:30;;;;;;;5.10;3.20;;;14.50;99.90;;;;;;4993915;28;20505;-74
2023/10/29 08:32:56;;;;;;;4.00;3.27;;;14.60;99.90;;;;;;4994503;28;20476;-74
2023/10/29 08:35:21;;;;;;;7.97;3.80;;;14.70;99.90;;;;;;4990359;28;20201;-75
2023/10/29 08:37:47;;;;;;;6.73;4.10;;;14.80;99.90;;;;;;4989585;28;20193;-73
2023/10/29 08:40:13;;;;;;;4.70;3.20;;;14.90;99.90;;;;;;4999857;28;20313;-74
2023/10/29 08:42:39;;;;;;;5.77;3.70;;;15.00;99.90;;;;;;4996321;28;20189;-74
2023/10/29 08:45:05;;;;;;;7.03;2.87;;;15.10;99.90;;;;;;4997427;28;20982;-74
2023/10/29 08:47:31;;;;;;;6.03;3.33;;;15.20;99.90;;;;;;4990260;28;20603;-73
2023/10/29 08:49:57;;;;;;;4.57;2.37;;;15.30;99.90;;;;;;4997158;28;20498;-74
2023/10/29 08:52:23;;;;;;;5.37;3.37;;;15.40;99.90;;;;;;5001316;28;20178;-74
2023/10/29 08:54:50;;;;;;;4.90;3.50;;;15.40;99.90;;;;;;4997394;28;20941;-74
2023/10/29 08:57:15;;;;;;;4.60;2.80;;;15.50;99.90;;;;;;4991922;28;20257;-74
2023/10/29 08:59:42;;;;;;;4.30;3.17;;;15.50;99.90;;;;;;4993620;28;20519;-75
2023/10/29 09:02:08;;;;;;;4.73;2.87;;;15.60;99.90;;;;;;5001030;28;20180;-74
2023/10/29 09:04:40;;;;;;;6.50;3.80;;;15.60;99.90;;;;;;4992352;28;21299;-74
2023/10/29 09:07:07;;;;;;;5.80;4.40;;;15.70;99.90;;;;;;4998385;28;20951;-73
2023/10/29 09:09:33;;;;;;;6.27;4.97;;;15.70;99.90;;;;;;4982968;28;21122;-72
2023/10/29 09:11:58;;;;;;;6.80;4.40;;;15.70;99.90;;;;;;4990587;28;21040;-73
2023/10/29 09:14:24;;;;;;;6.97;5.47;;;15.70;99.90;;;;;;4987965;28;20440;-73
2023/10/29 09:16:50;;;;;;;3.60;3.20;;;15.80;99.90;;;;;;4991853;28;20197;-73
2023/10/29 09:19:16;;;;;;;5.17;4.20;;;15.80;99.90;;;;;;4985429;28;20196;-72
2023/10/29 09:21:44;;;;;;;5.20;4.20;;;15.90;99.90;;;;;;4987508;28;20216;-73
2023/10/29 09:24:09;;;;;;;5.00;3.30;;;15.90;99.90;;;;;;4993431;28;20189;-72
2023/10/29 09:26:36;;;;;;;7.00;4.60;;;15.90;99.90;;;;;;4989791;28;20472;-74
2023/10/29 09:29:02;;;;;;;9.87;6.37;;;15.90;99.90;;;;;;4990720;28;20300;-73
2023/10/29 09:31:28;;;;;;;7.60;5.13;;;16.00;99.90;;;;;;5016779;28;20941;-73
2023/10/29 09:33:54;;;;;;;7.20;3.60;;;16.00;99.90;;;;;;4990417;28;20522;-72
2023/10/29 09:36:21;;;;;;;5.17;4.60;;;16.00;99.90;;;;;;4991253;28;20470;-75
2023/10/29 09:38:47;;;;;;;6.63;3.90;;;16.00;99.90;;;;;;4989404;28;20453;-74
2023/10/29 09:41:17;;;;;;;8.70;4.23;;;16.00;99.90;;;;;;4991244;28;20455;-74
2023/10/29 09:43:43;;;;;;;7.90;5.17;;;16.00;99.90;;;;;;4988452;28;20526;-75
2023/10/29 09:46:10;;;;;;;4.20;3.67;;;15.90;99.90;;;;;;4991004;28;20464;-75
2023/10/29 09:48:42;;;;;;;6.43;5.03;;;16.00;99.90;;;;;;4993646;28;20983;-75
2023/10/29 09:51:07;;;;;;;6.90;4.10;;;16.00;99.90;;;;;;4992442;28;20464;-74
2023/10/29 09:53:37;;;;;;;6.00;4.23;;;16.00;99.90;;;;;;4988937;28;20444;-76
2023/10/29 09:56:07;;;;;;;10.83;6.43;;;16.10;99.90;;;;;;4997534;28;20181;-77
2023/10/29 09:58:35;;;;;;;5.33;3.67;;;16.10;99.90;;;;;;4984907;28;20459;-75
2023/10/29 10:01:04;;;;;;;7.27;5.50;;;16.10;99.90;;;;;;4997000;28;20458;-76
2023/10/29 10:03:30;;;;;;;4.60;4.10;;;16.10;99.90;;;;;;4991291;28;20448;-75
2023/10/29 10:05:57;;;;;;;7.60;4.67;;;16.00;99.90;;;;;;4995858;28;20424;-75
2023/10/29 10:08:24;;;;;;;7.50;4.53;;;16.00;99.90;;;;;;4986648;28;21376;-76
2023/10/29 10:10:50;;;;;;;4.03;3.60;;;16.00;99.90;;;;;;4990844;28;20483;-75
2023/10/29 10:13:16;;;;;;;5.80;4.30;;;16.00;99.90;;;;;;4997368;28;20428;-74
2023/10/29 10:15:43;;;;;;;4.60;3.47;;;16.10;99.90;;;;;;4991320;28;20276;-76
2023/10/29 10:18:11;;;;;;;3.97;3.43;;;16.10;99.90;;;;;;4991981;28;20221;-75
2023/10/29 10:20:36;;;;;;;4.40;3.50;;;16.20;99.90;;;;;;4992212;28;20449;-75
2023/10/29 10:23:03;;;;;;;6.83;3.40;;;16.30;99.90;;;;;;4988305;28;20454;-75
2023/10/29 10:25:30;;;;;;;7.00;4.33;;;16.30;99.90;;;;;;4989398;28;20200;-79
2023/10/29 10:27:57;;;;;;;5.50;3.60;;;16.40;99.90;;;;;;4991625;28;20808;-77
2023/10/29 10:30:33;;;;;;;4.03;3.20;;;16.50;99.90;;;;;;4993099;28;20487;-79
2023/10/29 10:33:18;;;;;;;4.97;3.53;;;16.60;99.90;;;;;;4996352;28;20577;-77
2023/10/29 10:35:44;;;;;;;4.70;3.00;;;16.60;99.90;;;;;;4989069;28;20568;-78
2023/10/29 10:38:10;;;;;;;6.00;3.30;;;16.70;99.90;;;;;;4988281;28;20473;-77
2023/10/29 10:40:37;;;;;;;4.50;3.53;;;16.70;99.90;;;;;;4993428;28;20911;-77
2023/10/29 10:43:04;;;;;;;6.20;3.50;;;16.70;99.90;;;;;;4995296;28;20440;-77
2023/10/29 10:45:31;;;;;;;4.50;3.00;;;16.80;99.90;;;;;;4986951;28;20448;-76
2023/10/29 10:48:00;;;;;;;4.00;3.27;;;16.90;99.90;;;;;;4988939;28;20914;-76
2023/10/29 10:50:27;;;;;;;6.50;3.20;;;17.10;99.90;;;;;;4990829;28;20477;-76
2023/10/29 10:52:53;;;;;;;6.30;3.60;;;17.10;99.90;;;;;;4992891;28;20432;-76
2023/10/29 10:55:19;;;;;;;6.63;4.07;;;17.20;99.90;;;;;;4987478;28;20699;-77
2023/10/29 10:57:47;;;;;;;4.20;3.80;;;17.30;99.90;;;;;;4993268;28;20435;-76
2023/10/29 11:00:13;;;;;;;8.10;5.40;;;17.50;99.90;;;;;;4990531;28;20533;-72
2023/10/29 11:02:40;;;;;;;7.30;3.50;;;17.50;99.90;;;;;;4989658;28;20445;-71
2023/10/29 11:05:10;;;;;;;7.73;3.43;;;17.70;99.90;;;;;;4987116;28;20470;-71
2023/10/29 11:07:41;;;;;;;5.33;3.60;;;17.70;99.90;;;;;;5004210;28;20436;-71
2023/10/29 11:10:11;;;;;;;4.93;3.57;;;17.70;99.90;;;;;;4985005;28;20496;-71
2023/10/29 11:12:38;;;;;;;5.80;3.33;;;17.80;99.90;;;;;;4981347;28;20532;-71
2023/10/29 11:15:14;;;;;;;4.90;3.50;;;17.80;99.90;;;;;;4972331;28;20471;-75
2023/10/29 11:18:06;;;;;;;5.30;3.97;;;17.90;99.90;;;;;;4981717;28;20440;-75
2023/10/29 11:20:46;;;;;;;4.60;3.90;;;17.90;99.90;;;;;;4973708;28;20465;-73
2023/10/29 11:23:16;;;;;;;4.57;4.17;;;17.90;99.90;;;;;;4970174;28;20441;-75
2023/10/29 11:25:42;;;;;;;5.13;3.83;;;17.90;99.90;;;;;;4967333;28;20916;-73
2023/10/29 11:28:33;;;;;;;6.50;3.83;;;18.00;99.90;;;;;;4984528;28;20947;-73
2023/10/29 11:31:12;;;;;;;6.90;4.60;;;18.10;99.90;;;;;;4987382;28;20472;-74
2023/10/29 11:33:39;;;;;;;5.40;3.57;;;18.10;99.90;;;;;;4990140;28;20420;-74
2023/10/29 11:36:31;;;;;;;6.17;4.30;;;18.10;99.90;;;;;;4989198;28;20453;-75
2023/10/29 11:39:15;;;;;;;5.33;3.73;;;18.10;99.90;;;;;;4985985;28;20576;-75
2023/10/29 11:41:47;;;;;;;9.67;4.90;;;18.10;99.90;;;;;;4986751;28;20432;-73
2023/10/29 11:44:19;;;;;;;100.37;30.03;;;18.10;99.90;;;;;;5017447;28;20435;-74
2023/10/29 11:47:03;;;;;;;24.97;9.57;;;18.20;99.90;;;;;;4990836;28;20944;-76
2023/10/29 11:49:30;;;;;;;5.70;3.83;;;18.20;99.90;;;;;;4998736;28;20456;-73
2023/10/29 11:52:02;;;;;;;11.43;10.23;;;18.30;99.90;;;;;;4994849;28;20512;-73
2023/10/29 11:54:29;;;;;;;7.23;5.40;;;18.30;99.90;;;;;;4989823;28;20436;-74
2023/10/29 11:56:57;;;;;;;7.20;5.10;;;18.30;99.90;;;;;;4989989;28;20433;-74
2023/10/29 11:59:23;;;;;;;7.37;4.87;;;18.20;99.90;;;;;;4988377;28;20798;-74
2023/10/29 12:01:49;;;;;;;6.03;3.70;;;18.20;99.90;;;;;;4989646;28;20788;-73
2023/10/29 12:04:15;;;;;;;5.63;3.70;;;18.10;99.90;;;;;;4988703;28;20553;-75
2023/10/29 12:06:44;;;;;;;7.83;4.43;;;18.00;99.90;;;;;;4992966;28;20181;-74
2023/10/29 12:09:13;;;;;;;6.20;3.50;;;17.90;99.90;;;;;;4991931;28;20313;-75
2023/10/29 12:11:39;;;;;;;5.67;4.27;;;17.90;99.90;;;;;;4997341;28;20710;-74
2023/10/29 12:14:04;;;;;;;6.97;5.00;;;17.80;99.90;;;;;;4995470;28;20511;-74
2023/10/29 12:16:30;;;;;;;4.93;3.70;;;17.70;99.90;;;;;;4999957;28;20181;-74
2023/10/29 12:18:56;;;;;;;8.57;6.90;;;17.60;99.90;;;;;;4985986;28;21052;-73
2023/10/29 12:21:22;;;;;;;8.10;6.03;;;17.60;99.90;;;;;;4984532;28;20533;-73
2023/10/29 12:23:49;;;;;;;8.80;6.37;;;17.60;99.90;;;;;;4980015;28;20705;-73
2023/10/29 12:26:15;;;;;;;5.97;4.20;;;17.60;99.90;;;;;;4988364;28;20190;-74
2023/10/29 12:28:41;;;;;;;5.27;3.00;;;17.80;99.90;;;;;;4992208;28;20439;-75
2023/10/29 12:31:24;;;;;;;3.30;2.40;;;18.00;99.90;;;;;;4987362;28;20478;-73
2023/10/29 12:34:00;;;;;;;4.97;2.50;;;18.10;99.90;;;;;;4995832;28;20189;-72
2023/10/29 12:36:26;;;;;;;4.67;3.00;;;18.10;99.90;;;;;;5020676;28;20440;-74
2023/10/29 12:38:53;;;;;;;3.60;2.53;;;18.10;99.90;;;;;;4992934;28;20963;-75
2023/10/29 12:41:23;;;;;;;4.47;2.57;;;18.20;99.90;;;;;;4990387;28;20479;-74
2023/10/29 12:43:52;;;;;;;5.30;3.10;;;18.20;99.90;;;;;;4992947;28;20813;-74